This is the latest recevied weather packets stored in our database for station/object VK4CWL-13. If no packets are shown the sender has not sent any weather packets the latest 10 day(s).
| Time | Temp. | Humidity | Pressure | Rain* | Wind** | Luminosity | Snow |
|---|---|---|---|---|---|---|---|
| 1777795977 | 21.67° C | 90% | 1018.4 hPa | 0 mm | - | - | - |
| 1777795672 | 21.67° C | 90% | 1018.4 hPa | 0 mm | - | - | - |
| 1777795369 | 21.67° C | 90% | 1018.4 hPa | 0 mm | - | - | - |
| 1777795067 | 21.67° C | 90% | 1018.4 hPa | 0 mm | - | - | - |
| 1777794765 | 21.67° C | 89% | 1018.2 hPa | 0 mm | - | - | - |
| 1777794462 | 21.67° C | 89% | 1018.1 hPa | 0 mm | - | - | - |
| 1777794160 | 21.67° C | 88% | 1018 hPa | 0 mm | - | - | - |
| 1777793858 | 21.67° C | 88% | 1018 hPa | 0 mm | - | - | - |
| 1777793253 | 22.22° C | 88% | 1018 hPa | 0 mm | - | - | - |
| 1777792951 | 22.22° C | 88% | 1017.8 hPa | 0 mm | - | - | - |
| 1777792649 | 22.22° C | 88% | 1017.8 hPa | 0 mm | - | - | - |
| 1777792346 | 22.22° C | 88% | 1017.8 hPa | 0 mm | - | - | - |
| 1777792044 | 22.22° C | 87% | 1017.7 hPa | 0 mm | - | - | - |
| 1777791742 | 22.22° C | 88% | 1017.7 hPa | 0 mm | - | - | - |
| 1777791439 | 22.22° C | 91% | 1017.8 hPa | 0 mm | - | - | - |
| 1777791137 | 22.22° C | 84% | 1017.5 hPa | 0 mm | - | - | - |
| 1777790835 | 22.78° C | 83% | 1017.4 hPa | 0 mm | - | - | - |
| 1777790533 | 22.78° C | 85% | 1017.6 hPa | 0 mm | - | - | - |
| 1777790231 | 22.78° C | 82% | 1017.4 hPa | 0 mm | - | - | - |
| 1777789928 | 22.78° C | 83% | 1017.5 hPa | 0 mm | - | - | - |
| 1777789626 | 23.33° C | 82% | 1017.3 hPa | 0 mm | - | - | - |
| 1777789324 | 23.33° C | 80% | 1017.4 hPa | 0 mm | - | - | - |
| 1777789021 | 22.78° C | 79% | 1017.2 hPa | 0 mm | - | - | - |
| 1777788719 | 22.78° C | 79% | 1017.2 hPa | 0 mm | - | - | - |
| 1777788436 | 22.78° C | 80% | 1017.2 hPa | 0 mm | - | - | - |
* Rain since midnight (hover to see other rain measurements)
** Current wind speed in m/s (hover to see current wind gust speed)